Time;durP1;ratioP1;P1;durP2;ratioP2;P2;SDS_P1;SDS_P2;PMS_P1;PMS_P2;Temp;Humidity;BMP_temperature;BMP_pressure;BME280_temperature;BME280_humidity;BME280_pressure;Samples;Min_cycle;Max_cycle;Signal;HPM_P1;HPM_P2
2024/02/11 00:01:32;;;;;;;1.73;1.43;;;23.30;60.00;;;;;;5034724;28;20941;-86
2024/02/11 00:03:59;;;;;;;2.20;1.40;;;23.30;60.00;;;;;;5034640;28;20477;-86
2024/02/11 00:06:29;;;;;;;1.93;1.30;;;23.30;60.00;;;;;;5034122;28;20438;-87
2024/02/11 00:08:56;;;;;;;2.63;1.73;;;23.30;60.00;;;;;;5034897;28;20522;-84
2024/02/11 00:11:24;;;;;;;2.43;1.67;;;23.30;60.00;;;;;;5018046;28;20504;-85
2024/02/11 00:13:51;;;;;;;2.77;1.60;;;23.30;59.90;;;;;;5034866;28;20583;-85
2024/02/11 00:16:18;;;;;;;1.70;1.47;;;23.30;60.00;;;;;;5034579;28;20434;-85
2024/02/11 00:18:44;;;;;;;1.87;1.60;;;23.30;60.00;;;;;;5034884;28;20533;-85
2024/02/11 00:21:13;;;;;;;3.03;1.63;;;23.30;60.00;;;;;;5034983;28;20890;-85
2024/02/11 00:23:44;;;;;;;5.23;1.67;;;23.20;59.90;;;;;;5034940;28;20457;-86
2024/02/11 00:26:11;;;;;;;2.33;1.50;;;23.20;59.90;;;;;;5035531;28;20439;-86
2024/02/11 00:28:38;;;;;;;2.10;1.53;;;23.20;59.90;;;;;;5053237;28;20446;-85
2024/02/11 00:31:05;;;;;;;2.77;1.90;;;23.20;59.90;;;;;;5058727;28;20423;-88
2024/02/11 00:33:33;;;;;;;2.00;1.43;;;23.20;59.90;;;;;;5045556;28;20488;-85
2024/02/11 00:36:00;;;;;;;2.87;1.77;;;23.20;59.90;;;;;;5034506;28;20818;-85
2024/02/11 00:38:30;;;;;;;3.10;1.70;;;23.20;59.90;;;;;;5034533;28;20521;-85
2024/02/11 00:40:59;;;;;;;2.70;1.57;;;23.20;59.90;;;;;;5034336;28;20438;-85
2024/02/11 00:43:28;;;;;;;2.23;1.83;;;23.20;59.90;;;;;;5033723;28;20474;-84
2024/02/11 00:45:54;;;;;;;2.50;1.67;;;23.20;59.90;;;;;;5034093;28;20467;-85
2024/02/11 00:48:22;;;;;;;2.10;1.30;;;23.20;59.90;;;;;;5034092;28;20481;-85
2024/02/11 00:50:49;;;;;;;3.40;1.73;;;23.30;60.00;;;;;;5034221;28;20545;-87
2024/02/11 00:53:16;;;;;;;1.93;1.30;;;23.20;59.90;;;;;;5033606;28;20490;-85
2024/02/11 00:55:43;;;;;;;2.57;1.60;;;23.20;59.90;;;;;;5034033;28;20442;-87
2024/02/11 00:58:11;;;;;;;2.10;1.30;;;23.20;60.00;;;;;;5033822;28;20440;-87
2024/02/11 01:00:38;;;;;;;2.80;1.70;;;23.20;59.90;;;;;;5016235;28;20816;-87
2024/02/11 01:03:05;;;;;;;2.33;1.60;;;23.20;59.90;;;;;;5033558;28;20996;-86
2024/02/11 01:05:32;;;;;;;2.00;1.53;;;23.20;60.00;;;;;;5033837;28;20473;-86
2024/02/11 01:08:01;;;;;;;1.80;1.30;;;23.20;59.90;;;;;;5034311;28;20434;-86
2024/02/11 01:10:31;;;;;;;2.90;1.80;;;23.20;60.80;;;;;;5033965;28;20534;-87
2024/02/11 01:12:58;;;;;;;1.97;1.30;;;23.10;60.60;;;;;;5033402;28;20552;-86
2024/02/11 01:15:27;;;;;;;2.87;2.20;;;23.20;60.00;;;;;;5034887;28;20521;-86
2024/02/11 01:17:54;;;;;;;1.93;1.60;;;23.10;59.90;;;;;;5032996;28;20434;-86
2024/02/11 01:20:21;;;;;;;2.00;1.60;;;23.10;60.10;;;;;;5033817;28;20441;-85
2024/02/11 01:22:48;;;;;;;1.77;1.30;;;23.10;59.90;;;;;;5034092;28;20549;-86
2024/02/11 01:25:19;;;;;;;2.03;1.63;;;23.20;60.00;;;;;;5033709;28;20496;-86
2024/02/11 01:27:46;;;;;;;2.27;1.60;;;23.10;59.90;;;;;;5033492;28;20461;-86
2024/02/11 01:30:14;;;;;;;2.60;1.80;;;23.10;59.90;;;;;;5033641;28;20442;-85
2024/02/11 01:32:42;;;;;;;3.20;1.70;;;23.10;59.90;;;;;;5033459;28;20524;-86
2024/02/11 01:35:12;;;;;;;2.33;1.63;;;23.10;59.90;;;;;;5033589;28;20455;-87
2024/02/11 01:37:40;;;;;;;2.60;1.47;;;23.10;59.90;;;;;;5033877;28;20442;-86
2024/02/11 01:40:09;;;;;;;1.90;1.40;;;23.10;59.90;;;;;;5033556;28;20442;-86
2024/02/11 01:42:37;;;;;;;2.47;1.57;;;23.10;59.90;;;;;;5033667;28;20449;-86
2024/02/11 01:45:04;;;;;;;2.53;2.00;;;23.10;59.90;;;;;;5033423;28;20450;-86
2024/02/11 01:47:31;;;;;;;14.10;3.90;;;23.10;59.90;;;;;;5033267;28;20447;-83
2024/02/11 01:49:59;;;;;;;16.67;3.90;;;23.10;59.50;;;;;;5032988;28;20454;-86
2024/02/11 01:52:28;;;;;;;5.87;2.10;;;23.00;59.30;;;;;;5027155;28;20474;-84
2024/02/11 01:54:55;;;;;;;6.00;1.93;;;23.00;59.50;;;;;;5033033;28;20471;-85
2024/02/11 01:57:21;;;;;;;2.53;1.90;;;23.00;59.60;;;;;;5015033;28;20457;-85
2024/02/11 01:59:51;;;;;;;2.27;1.73;;;23.00;59.90;;;;;;5032614;28;20454;-85
2024/02/11 02:02:21;;;;;;;3.30;1.93;;;23.00;60.00;;;;;;5031348;28;20457;-84
2024/02/11 02:04:49;;;;;;;2.93;2.10;;;23.00;60.10;;;;;;5032795;28;20478;-85
2024/02/11 02:07:18;;;;;;;4.13;2.03;;;23.00;60.10;;;;;;5033136;28;20450;-84
2024/02/11 02:09:45;;;;;;;2.87;2.10;;;23.00;60.10;;;;;;5033175;28;20446;-85
2024/02/11 02:12:14;;;;;;;2.77;1.80;;;23.10;60.20;;;;;;5033464;28;20442;-85
2024/02/11 02:14:42;;;;;;;2.57;2.20;;;23.00;60.10;;;;;;5033505;28;20448;-85
2024/02/11 02:17:09;;;;;;;3.00;1.80;;;23.00;60.10;;;;;;5033065;28;20448;-85
2024/02/11 02:19:35;;;;;;;4.03;1.50;;;23.00;60.10;;;;;;5033328;28;20434;-85
2024/02/11 02:22:04;;;;;;;3.80;1.93;;;23.00;60.10;;;;;;5033274;28;20450;-85
2024/02/11 02:24:31;;;;;;;3.43;1.90;;;23.00;60.10;;;;;;5033116;28;20529;-85
2024/02/11 02:26:57;;;;;;;2.23;1.60;;;23.00;60.10;;;;;;5033498;28;20438;-85
2024/02/11 02:29:24;;;;;;;2.90;1.80;;;23.00;60.00;;;;;;5034812;28;20438;-85
2024/02/11 02:31:51;;;;;;;2.80;1.73;;;23.00;60.00;;;;;;5036734;28;20445;-85
2024/02/11 02:34:19;;;;;;;2.10;1.63;;;23.00;60.10;;;;;;5036437;28;20997;-84
2024/02/11 02:36:48;;;;;;;2.50;1.53;;;23.00;60.10;;;;;;5036091;28;20451;-84
2024/02/11 02:39:16;;;;;;;3.23;2.00;;;23.00;60.10;;;;;;5036753;28;20438;-84
2024/02/11 02:41:43;;;;;;;2.13;1.50;;;23.00;60.00;;;;;;5036661;28;20444;-85
2024/02/11 02:44:09;;;;;;;3.13;1.97;;;23.00;60.10;;;;;;5036859;28;20460;-85
2024/02/11 02:46:36;;;;;;;2.23;1.70;;;23.10;60.20;;;;;;5036387;28;20431;-85
2024/02/11 02:49:03;;;;;;;3.30;2.13;;;22.90;59.90;;;;;;5036635;28;20431;-85
2024/02/11 02:51:31;;;;;;;2.10;1.47;;;22.90;59.90;;;;;;5047098;28;20441;-86
2024/02/11 02:53:57;;;;;;;2.00;1.70;;;22.90;59.90;;;;;;5058259;28;20485;-85
2024/02/11 02:56:26;;;;;;;1.93;1.57;;;23.00;60.00;;;;;;5055641;28;20426;-84
2024/02/11 02:58:54;;;;;;;2.27;1.50;;;22.90;60.00;;;;;;5045304;28;20458;-85
2024/02/11 03:01:26;;;;;;;3.50;1.80;;;22.90;60.00;;;;;;5037292;28;20473;-86
2024/02/11 03:03:53;;;;;;;2.27;1.50;;;22.90;59.90;;;;;;5037028;28;20466;-86
2024/02/11 03:06:20;;;;;;;2.60;1.60;;;23.00;60.10;;;;;;5036236;28;20440;-86
2024/02/11 03:08:47;;;;;;;1.93;1.60;;;22.90;60.00;;;;;;5036367;28;20434;-86
2024/02/11 03:11:14;;;;;;;2.90;1.77;;;22.90;59.90;;;;;;5036605;28;20441;-86
2024/02/11 03:13:44;;;;;;;2.93;1.60;;;22.90;60.00;;;;;;5036519;28;20572;-86
2024/02/11 03:16:11;;;;;;;2.40;1.80;;;22.90;60.00;;;;;;5035781;28;20448;-85
2024/02/11 03:18:40;;;;;;;3.53;1.70;;;22.90;60.00;;;;;;5035963;28;20465;-86
2024/02/11 03:21:07;;;;;;;2.10;1.60;;;22.90;60.00;;;;;;5035794;28;20442;-85
2024/02/11 03:23:35;;;;;;;1.90;1.57;;;22.90;60.00;;;;;;5036013;28;20451;-86
2024/02/11 03:26:03;;;;;;;2.27;1.57;;;22.90;60.00;;;;;;5035626;28;20469;-86
2024/02/11 03:28:34;;;;;;;2.17;1.40;;;22.90;60.00;;;;;;5035813;28;20454;-86
2024/02/11 03:31:02;;;;;;;2.80;1.87;;;22.90;60.00;;;;;;5035795;28;20443;-85
2024/02/11 03:33:30;;;;;;;2.13;1.40;;;22.90;60.00;;;;;;5035604;28;20505;-86
2024/02/11 03:35:56;;;;;;;1.90;1.60;;;22.90;60.00;;;;;;5034749;28;20460;-85
2024/02/11 03:38:24;;;;;;;2.20;1.60;;;23.00;60.20;;;;;;5035340;28;20439;-85
2024/02/11 03:40:52;;;;;;;4.07;1.57;;;22.90;60.00;;;;;;5034276;28;20956;-85
2024/02/11 03:43:19;;;;;;;1.90;1.50;;;22.90;60.10;;;;;;5017898;28;20504;-86
2024/02/11 03:45:46;;;;;;;2.17;1.63;;;22.90;60.00;;;;;;5049525;28;20457;-85
2024/02/11 03:48:14;;;;;;;2.00;1.40;;;22.90;60.00;;;;;;5059636;28;20430;-87
2024/02/11 03:50:41;;;;;;;2.10;1.50;;;23.00;60.10;;;;;;5050956;28;20531;-85
2024/02/11 03:53:08;;;;;;;2.00;1.43;;;23.00;60.20;;;;;;5035916;28;20837;-84
2024/02/11 03:55:36;;;;;;;5.30;2.03;;;22.90;60.00;;;;;;5035513;28;20442;-85
2024/02/11 03:58:04;;;;;;;2.83;1.60;;;22.90;60.00;;;;;;5035303;28;20447;-85
2024/02/11 04:00:31;;;;;;;2.30;1.70;;;22.80;60.00;;;;;;5035177;28;20438;-84
2024/02/11 04:02:58;;;;;;;1.90;1.53;;;22.90;60.00;;;;;;5034921;28;20478;-85
2024/02/11 04:05:28;;;;;;;1.83;1.63;;;23.00;60.10;;;;;;5034559;28;20977;-85
2024/02/11 04:07:55;;;;;;;4.83;1.90;;;22.80;60.00;;;;;;5034634;28;20478;-85
2024/02/11 04:10:28;;;;;;;2.50;1.67;;;22.80;60.00;;;;;;5034675;28;20444;-85
2024/02/11 04:12:58;;;;;;;2.20;1.70;;;22.80;60.00;;;;;;5035419;28;21011;-85
2024/02/11 04:15:27;;;;;;;2.43;1.80;;;22.80;60.00;;;;;;5034823;28;20470;-86
2024/02/11 04:17:56;;;;;;;1.83;1.30;;;22.80;60.00;;;;;;5034614;28;20619;-85
2024/02/11 04:20:26;;;;;;;2.40;1.40;;;22.80;60.00;;;;;;5034813;28;20878;-85
2024/02/11 04:22:57;;;;;;;2.23;1.60;;;22.80;60.00;;;;;;5034855;28;20510;-85
2024/02/11 04:25:25;;;;;;;2.00;1.50;;;22.80;60.00;;;;;;5034985;28;20442;-85
2024/02/11 04:27:52;;;;;;;2.77;1.70;;;22.80;60.00;;;;;;5034615;28;20446;-85
2024/02/11 04:30:19;;;;;;;2.87;1.60;;;22.80;60.00;;;;;;5034329;28;20458;-85
2024/02/11 04:32:47;;;;;;;2.10;1.50;;;22.90;60.10;;;;;;5034666;28;20933;-85
2024/02/11 04:35:15;;;;;;;2.27;1.50;;;22.80;60.00;;;;;;5034544;28;21043;-85
2024/02/11 04:37:46;;;;;;;2.57;1.60;;;22.80;60.00;;;;;;5034110;28;20992;-85
2024/02/11 04:40:16;;;;;;;1.80;1.40;;;22.80;60.00;;;;;;5034674;28;20443;-85
2024/02/11 04:42:44;;;;;;;2.23;1.57;;;22.80;60.00;;;;;;5034370;28;20533;-86
2024/02/11 04:45:15;;;;;;;2.30;1.60;;;22.80;60.00;;;;;;5034107;28;20434;-86
2024/02/11 04:47:45;;;;;;;2.40;1.57;;;22.80;60.00;;;;;;5034162;28;20457;-85
2024/02/11 04:50:15;;;;;;;2.70;1.83;;;22.80;60.10;;;;;;5033795;28;20438;-85
2024/02/11 04:52:54;;;;;;;1.90;1.30;;;22.80;60.00;;;;;;5033809;28;20887;-86
2024/02/11 04:55:24;;;;;;;2.03;1.40;;;22.80;60.00;;;;;;5034212;28;20497;-85
2024/02/11 04:57:51;;;;;;;1.80;1.30;;;22.80;60.00;;;;;;5017172;28;20442;-85
2024/02/11 05:00:25;;;;;;;4.43;1.27;;;22.70;60.00;;;;;;5033964;28;20446;-85
2024/02/11 05:02:52;;;;;;;2.20;1.37;;;22.80;60.00;;;;;;5033713;28;21016;-85
2024/02/11 05:05:25;;;;;;;2.60;1.57;;;22.70;60.00;;;;;;5034841;28;20468;-85
2024/02/11 05:07:52;;;;;;;2.27;1.50;;;22.70;59.90;;;;;;5034584;28;20439;-84
2024/02/11 05:10:21;;;;;;;2.10;1.70;;;22.80;60.00;;;;;;5034773;28;20441;-85
2024/02/11 05:12:49;;;;;;;1.97;1.40;;;22.70;60.00;;;;;;5034479;28;20452;-84
2024/02/11 05:15:20;;;;;;;2.13;1.47;;;22.70;60.00;;;;;;5033875;28;20481;-84
2024/02/11 05:17:48;;;;;;;2.00;1.37;;;22.70;60.00;;;;;;5033889;28;20430;-85
2024/02/11 05:20:21;;;;;;;1.70;1.17;;;22.70;60.00;;;;;;5033842;28;20482;-86
2024/02/11 05:22:47;;;;;;;1.97;1.50;;;22.70;60.00;;;;;;5033795;28;20438;-85
2024/02/11 05:25:18;;;;;;;1.87;1.27;;;22.70;60.00;;;;;;5033311;28;20442;-85
2024/02/11 05:27:46;;;;;;;2.13;1.40;;;22.70;60.00;;;;;;5033836;28;20528;-85
2024/02/11 05:30:15;;;;;;;2.20;1.53;;;22.70;60.00;;;;;;5033513;28;20438;-85
2024/02/11 05:32:42;;;;;;;1.90;1.60;;;22.70;60.00;;;;;;5034019;28;20446;-85
2024/02/11 05:35:11;;;;;;;2.00;1.33;;;22.70;60.00;;;;;;5033445;28;20867;-85
2024/02/11 05:37:38;;;;;;;1.70;1.40;;;22.70;60.00;;;;;;5033876;28;20449;-85
2024/02/11 05:40:10;;;;;;;1.70;1.43;;;22.70;60.00;;;;;;5033647;28;20430;-85
2024/02/11 05:42:39;;;;;;;2.33;1.57;;;22.70;60.00;;;;;;5033595;28;20525;-85
2024/02/11 05:45:06;;;;;;;1.77;1.13;;;22.70;60.00;;;;;;5033478;28;20448;-85
2024/02/11 05:47:36;;;;;;;1.70;1.23;;;22.70;60.00;;;;;;5034377;28;20442;-86
2024/02/11 05:50:06;;;;;;;2.13;1.73;;;22.70;60.10;;;;;;5034488;28;20442;-85
2024/02/11 05:52:33;;;;;;;2.30;1.50;;;22.70;60.00;;;;;;5033693;28;20446;-85
2024/02/11 05:55:00;;;;;;;2.43;1.57;;;22.70;60.00;;;;;;5032847;28;20488;-85
2024/02/11 05:57:28;;;;;;;1.90;1.40;;;22.70;60.00;;;;;;5033040;28;20438;-85
2024/02/11 05:59:55;;;;;;;1.80;1.50;;;22.70;60.00;;;;;;5033626;28;20525;-85
2024/02/11 06:02:22;;;;;;;2.07;1.13;;;22.70;60.00;;;;;;5033296;28;20438;-85
2024/02/11 06:04:52;;;;;;;2.13;1.27;;;22.80;60.10;;;;;;5035399;28;20999;-86
2024/02/11 06:07:20;;;;;;;2.33;1.40;;;22.70;60.80;;;;;;5037272;28;20439;-85
2024/02/11 06:09:47;;;;;;;2.07;1.60;;;22.70;60.00;;;;;;5036983;28;20956;-85
2024/02/11 06:12:14;;;;;;;2.00;1.47;;;22.70;60.00;;;;;;5037385;28;20469;-85
2024/02/11 06:14:42;;;;;;;2.10;1.37;;;22.70;60.10;;;;;;5036756;28;20489;-85
2024/02/11 06:17:10;;;;;;;1.70;1.30;;;22.70;60.90;;;;;;5036725;28;20929;-85
2024/02/11 06:19:40;;;;;;;6.30;1.60;;;22.70;60.00;;;;;;5036854;28;20540;-85
2024/02/11 06:22:08;;;;;;;1.67;1.13;;;22.70;60.10;;;;;;5037002;28;20438;-85
2024/02/11 06:24:35;;;;;;;1.80;1.47;;;22.60;60.00;;;;;;5036990;28;20437;-85
2024/02/11 06:27:02;;;;;;;2.37;1.70;;;22.60;60.00;;;;;;5036653;28;20979;-85
2024/02/11 06:29:29;;;;;;;2.30;1.20;;;22.70;60.10;;;;;;5036775;28;20449;-85
2024/02/11 06:31:58;;;;;;;2.10;1.27;;;22.60;60.00;;;;;;5036678;28;20438;-85
2024/02/11 06:34:26;;;;;;;1.87;1.50;;;22.60;60.00;;;;;;5036300;28;20481;-85
2024/02/11 06:36:53;;;;;;;1.67;1.23;;;22.60;60.00;;;;;;5036722;28;20478;-85
2024/02/11 06:39:24;;;;;;;3.80;1.20;;;22.60;60.00;;;;;;5018897;28;20442;-85
2024/02/11 06:41:51;;;;;;;2.23;1.47;;;22.60;60.00;;;;;;5036890;28;20431;-85
2024/02/11 06:44:22;;;;;;;2.40;1.70;;;22.60;60.00;;;;;;5036529;28;20533;-85
2024/02/11 06:46:49;;;;;;;1.90;1.40;;;22.60;60.00;;;;;;5036338;28;20525;-85
2024/02/11 06:49:16;;;;;;;2.13;1.43;;;22.60;60.00;;;;;;5036735;28;20442;-85
2024/02/11 06:51:43;;;;;;;1.93;1.40;;;22.60;60.00;;;;;;5036270;28;20445;-85
2024/02/11 06:54:10;;;;;;;2.10;1.50;;;22.60;60.00;;;;;;5035846;28;20488;-85
2024/02/11 06:56:39;;;;;;;1.80;1.30;;;22.60;60.00;;;;;;5036269;28;20934;-85
2024/02/11 06:59:05;;;;;;;1.60;1.20;;;22.60;60.00;;;;;;5036117;28;20438;-85
2024/02/11 07:01:33;;;;;;;2.77;1.27;;;22.60;60.00;;;;;;5035988;28;20443;-85
2024/02/11 07:04:02;;;;;;;2.00;1.40;;;22.60;60.00;;;;;;5049724;28;20501;-86
2024/02/11 07:06:30;;;;;;;1.70;1.20;;;22.60;60.00;;;;;;5060007;28;20450;-87
2024/02/11 07:08:56;;;;;;;1.70;1.30;;;22.60;60.00;;;;;;5053177;28;20446;-85
2024/02/11 07:11:23;;;;;;;2.00;1.20;;;22.60;60.10;;;;;;5035664;28;20438;-85
2024/02/11 07:13:52;;;;;;;1.80;1.40;;;22.70;60.20;;;;;;5035527;28;20446;-85
2024/02/11 07:16:27;;;;;;;1.70;1.20;;;22.60;60.00;;;;;;5040425;28;20439;-85
2024/02/11 07:18:54;;;;;;;1.70;1.30;;;22.60;60.10;;;;;;5040063;28;20480;-86
2024/02/11 07:21:21;;;;;;;2.03;1.67;;;22.60;60.10;;;;;;5038122;28;20450;-84
2024/02/11 07:23:48;;;;;;;1.90;1.20;;;22.60;60.10;;;;;;5035646;28;20492;-86
2024/02/11 07:26:16;;;;;;;2.00;1.43;;;22.60;60.00;;;;;;5035807;28;20441;-85
2024/02/11 07:28:45;;;;;;;2.23;1.23;;;22.60;60.10;;;;;;5035662;28;20449;-85
2024/02/11 07:31:13;;;;;;;2.00;1.30;;;22.60;60.00;;;;;;5035166;28;20454;-85
2024/02/11 07:33:40;;;;;;;1.90;1.30;;;22.60;60.10;;;;;;5017699;28;20461;-85
2024/02/11 07:36:07;;;;;;;2.80;1.57;;;22.60;60.10;;;;;;5035534;28;20859;-84
2024/02/11 07:38:34;;;;;;;1.80;1.27;;;22.60;60.10;;;;;;5035671;28;20438;-85
2024/02/11 07:41:01;;;;;;;1.80;1.20;;;22.60;60.10;;;;;;5035561;28;20521;-84
2024/02/11 07:43:28;;;;;;;2.10;1.33;;;22.70;60.10;;;;;;5035379;28;20934;-85
2024/02/11 07:45:57;;;;;;;1.80;1.10;;;22.60;60.10;;;;;;5035701;28;20937;-85
2024/02/11 07:48:26;;;;;;;1.80;1.30;;;22.60;60.10;;;;;;5035354;28;20442;-85
2024/02/11 07:50:53;;;;;;;1.50;0.90;;;22.50;60.10;;;;;;5035049;28;20446;-85
2024/02/11 07:53:20;;;;;;;1.80;1.10;;;22.50;60.00;;;;;;5035259;28;20446;-86
2024/02/11 07:55:47;;;;;;;1.80;1.17;;;22.50;60.00;;;;;;5036481;28;20478;-85
2024/02/11 07:58:14;;;;;;;1.80;1.00;;;22.50;60.00;;;;;;5035917;28;20439;-86
2024/02/11 08:00:41;;;;;;;1.67;1.20;;;22.50;60.10;;;;;;5035463;28;20434;-85
2024/02/11 08:03:08;;;;;;;1.60;1.03;;;22.50;60.00;;;;;;5035595;28;20508;-85
2024/02/11 08:05:37;;;;;;;1.60;1.10;;;22.50;60.00;;;;;;5034603;28;20470;-85
2024/02/11 08:08:04;;;;;;;1.80;1.30;;;22.60;60.20;;;;;;5034456;28;20450;-86
2024/02/11 08:10:32;;;;;;;1.97;1.17;;;22.50;60.00;;;;;;5034929;28;21024;-86
2024/02/11 08:12:59;;;;;;;2.33;1.10;;;22.50;60.10;;;;;;5035040;28;20872;-86
2024/02/11 08:15:26;;;;;;;1.80;1.20;;;22.50;60.10;;;;;;5034527;28;20486;-85
2024/02/11 08:17:53;;;;;;;2.30;1.07;;;22.50;60.10;;;;;;5034621;28;20530;-85
2024/02/11 08:20:19;;;;;;;1.90;1.60;;;22.50;60.10;;;;;;5034698;28;20929;-84
2024/02/11 08:22:48;;;;;;;6.70;1.43;;;22.50;60.30;;;;;;5034816;28;20436;-83
2024/02/11 08:25:14;;;;;;;3.80;1.33;;;22.50;60.00;;;;;;5034577;28;20437;-82
2024/02/11 08:27:47;;;;;;;2.70;1.70;;;22.50;59.90;;;;;;5034508;28;20532;-83
2024/02/11 08:30:14;;;;;;;18.67;1.37;;;22.50;60.30;;;;;;5035204;28;20437;-82
2024/02/11 08:32:43;;;;;;;3.60;1.40;;;22.50;60.60;;;;;;5034784;28;20525;-82
2024/02/11 08:35:10;;;;;;;3.50;1.47;;;22.50;60.70;;;;;;5036321;28;20494;-83
2024/02/11 08:37:37;;;;;;;11.93;2.57;;;22.50;60.80;;;;;;5037244;28;20469;-82
2024/02/11 08:40:07;;;;;;;5.47;2.23;;;22.50;60.80;;;;;;5037658;28;20438;-81
2024/02/11 08:42:34;;;;;;;11.83;3.50;;;22.50;60.70;;;;;;5037298;28;20449;-82
2024/02/11 08:45:18;;;;;;;31.10;8.20;;;22.50;59.90;;;;;;5036133;28;20442;-83
2024/02/11 08:47:44;;;;;;;33.20;9.50;;;22.40;59.10;;;;;;5038208;28;20446;-83
2024/02/11 08:50:11;;;;;;;33.50;7.97;;;22.30;59.30;;;;;;5037486;28;20446;-83
2024/02/11 08:52:39;;;;;;;28.13;6.30;;;22.30;59.80;;;;;;5030803;28;20451;-84
2024/02/11 08:55:09;;;;;;;14.90;4.70;;;22.30;60.00;;;;;;5018347;28;20483;-84
2024/02/11 08:57:38;;;;;;;14.03;4.00;;;22.30;60.10;;;;;;5033006;28;20821;-84
2024/02/11 09:00:14;;;;;;;15.90;4.47;;;22.30;60.60;;;;;;5038299;28;21005;-84
2024/02/11 09:02:40;;;;;;;15.30;4.50;;;22.30;60.70;;;;;;5037274;28;20456;-85
2024/02/11 09:05:08;;;;;;;14.13;3.70;;;22.30;60.80;;;;;;5038094;28;20886;-85
2024/02/11 09:07:35;;;;;;;22.53;4.43;;;22.40;60.90;;;;;;5036821;28;20442;-85
2024/02/11 09:10:02;;;;;;;15.17;4.53;;;22.40;61.00;;;;;;5037040;28;20449;-84
2024/02/11 09:12:34;;;;;;;9.97;3.90;;;22.40;61.10;;;;;;5037157;28;20447;-84
2024/02/11 09:15:03;;;;;;;15.03;4.10;;;22.40;61.10;;;;;;5037906;28;20478;-84
2024/02/11 09:17:32;;;;;;;13.00;5.00;;;22.40;61.00;;;;;;5037674;28;20497;-85
2024/02/11 09:20:00;;;;;;;7.27;3.60;;;22.40;61.20;;;;;;5038285;28;20473;-85
2024/02/11 09:22:27;;;;;;;11.80;4.37;;;22.40;61.30;;;;;;5037633;28;20438;-84
2024/02/11 09:24:54;;;;;;;13.17;4.47;;;22.40;61.40;;;;;;5037414;28;20450;-84
2024/02/11 09:27:21;;;;;;;10.97;3.77;;;22.40;61.40;;;;;;5038068;28;20454;-85
2024/02/11 09:29:59;;;;;;;9.37;3.80;;;22.40;61.40;;;;;;5036541;28;20823;-85
2024/02/11 09:32:25;;;;;;;11.80;5.10;;;22.40;61.50;;;;;;5036776;28;20537;-86
2024/02/11 09:34:54;;;;;;;7.87;3.40;;;22.40;61.70;;;;;;5037191;28;20473;-84
2024/02/11 09:37:22;;;;;;;9.73;3.90;;;22.40;61.40;;;;;;5038202;28;20442;-84
2024/02/11 09:39:50;;;;;;;9.00;3.40;;;22.40;61.50;;;;;;5040644;28;20442;-85
2024/02/11 09:42:21;;;;;;;11.70;3.67;;;22.40;61.70;;;;;;5040932;28;20452;-86
2024/02/11 09:44:58;;;;;;;10.70;3.57;;;22.40;61.60;;;;;;5041667;28;20807;-84
2024/02/11 09:47:26;;;;;;;16.50;4.27;;;22.40;61.50;;;;;;5041229;28;20448;-85
2024/02/11 09:50:00;;;;;;;10.83;4.90;;;22.40;61.60;;;;;;5041592;28;20449;-85
2024/02/11 09:52:27;;;;;;;10.03;3.40;;;22.50;61.80;;;;;;5041075;28;20496;-85
2024/02/11 09:54:54;;;;;;;11.13;4.77;;;22.50;61.90;;;;;;5040862;28;20480;-82
2024/02/11 09:57:22;;;;;;;15.33;5.33;;;22.40;61.70;;;;;;5040632;28;20477;-83
2024/02/11 09:59:53;;;;;;;12.73;4.77;;;22.40;61.00;;;;;;5040815;28;20448;-83
2024/02/11 10:02:19;;;;;;;14.60;4.00;;;22.40;60.60;;;;;;5041616;28;20453;-84
2024/02/11 10:04:51;;;;;;;10.00;4.30;;;22.50;60.80;;;;;;5041092;28;20469;-87
2024/02/11 10:07:25;;;;;;;14.33;3.77;;;22.40;61.50;;;;;;5024085;28;20426;-85
2024/02/11 10:09:56;;;;;;;14.10;3.97;;;22.40;61.30;;;;;;5040865;28;20450;-85
2024/02/11 10:12:24;;;;;;;8.87;4.37;;;22.40;61.30;;;;;;5041483;28;20442;-84
2024/02/11 10:14:57;;;;;;;10.73;3.70;;;22.40;61.40;;;;;;5040133;28;20441;-85
2024/02/11 10:17:32;;;;;;;8.83;4.00;;;22.40;61.30;;;;;;5039946;28;20474;-86
2024/02/11 10:20:00;;;;;;;9.37;3.90;;;22.40;61.40;;;;;;5040689;28;20438;-84
2024/02/11 10:22:28;;;;;;;11.30;3.70;;;22.30;61.20;;;;;;5040026;28;20434;-84
2024/02/11 10:24:57;;;;;;;12.50;3.97;;;22.40;61.30;;;;;;5047692;28;20509;-83
2024/02/11 10:27:24;;;;;;;12.40;4.27;;;22.40;61.10;;;;;;5060032;28;20440;-85
2024/02/11 10:29:51;;;;;;;9.40;3.77;;;22.30;61.10;;;;;;5059573;28;20446;-87
2024/02/11 10:32:19;;;;;;;14.13;3.97;;;22.30;61.10;;;;;;5041674;28;20450;-84
2024/02/11 10:34:47;;;;;;;15.93;3.73;;;22.30;60.90;;;;;;5040412;28;20482;-84
2024/02/11 10:37:15;;;;;;;10.83;3.53;;;22.30;59.80;;;;;;5040904;28;20947;-85
2024/02/11 10:39:44;;;;;;;5.50;3.47;;;22.30;59.50;;;;;;5041157;28;20929;-85
2024/02/11 10:42:15;;;;;;;4.83;2.80;;;22.20;59.20;;;;;;5040330;28;20438;-85
2024/02/11 10:44:50;;;;;;;6.17;3.07;;;22.10;59.10;;;;;;5040337;28;20541;-85
2024/02/11 10:47:17;;;;;;;4.93;2.63;;;22.10;59.20;;;;;;5041056;28;20469;-83
2024/02/11 10:49:47;;;;;;;5.67;3.30;;;22.10;59.50;;;;;;5039810;28;20438;-85
2024/02/11 10:52:16;;;;;;;7.33;2.70;;;22.00;59.70;;;;;;5039745;28;20426;-84
2024/02/11 10:54:43;;;;;;;9.20;3.57;;;22.00;59.90;;;;;;5039720;28;20445;-84
2024/02/11 10:57:19;;;;;;;5.57;2.83;;;22.10;60.10;;;;;;5039024;28;21072;-83
2024/02/11 10:59:59;;;;;;;6.57;2.93;;;22.10;60.00;;;;;;5040304;28;20473;-83
2024/02/11 11:02:31;;;;;;;8.40;3.27;;;22.10;60.00;;;;;;5040179;28;20438;-84
2024/02/11 11:05:03;;;;;;;8.23;2.53;;;22.10;60.00;;;;;;5039237;28;20532;-85
2024/02/11 11:07:31;;;;;;;4.90;2.80;;;22.10;60.10;;;;;;5040115;28;20768;-84
2024/02/11 11:09:58;;;;;;;5.17;2.50;;;22.20;60.10;;;;;;5039609;28;20450;-84
2024/02/11 11:12:25;;;;;;;5.80;2.73;;;22.20;60.10;;;;;;5040144;28;20448;-84
2024/02/11 11:14:57;;;;;;;7.00;3.40;;;22.20;60.10;;;;;;5039661;28;20443;-86
2024/02/11 11:17:23;;;;;;;9.30;3.37;;;22.20;60.10;;;;;;5038935;28;20438;-82
2024/02/11 11:19:52;;;;;;;4.93;2.77;;;22.20;60.00;;;;;;5040269;28;20441;-82
2024/02/11 11:22:30;;;;;;;5.33;2.70;;;22.20;59.90;;;;;;5040288;28;20438;-84
2024/02/11 11:24:59;;;;;;;4.80;2.57;;;22.30;59.70;;;;;;5023458;28;20440;-84
2024/02/11 11:27:26;;;;;;;5.00;2.30;;;22.40;59.80;;;;;;5021693;28;20450;-83
2024/02/11 11:29:55;;;;;;;9.93;2.80;;;22.20;59.70;;;;;;5039243;28;20437;-84
2024/02/11 11:32:23;;;;;;;8.67;2.97;;;22.30;60.60;;;;;;5038691;28;20521;-84
2024/02/11 11:34:53;;;;;;;5.60;2.57;;;22.30;59.90;;;;;;5039504;28;20458;-84
2024/02/11 11:37:20;;;;;;;6.00;2.70;;;22.30;59.80;;;;;;5038486;28;20473;-84
2024/02/11 11:39:49;;;;;;;5.77;2.37;;;22.30;59.90;;;;;;5038921;28;20450;-84
2024/02/11 11:42:17;;;;;;;4.93;2.50;;;22.30;59.90;;;;;;5039445;28;20447;-83
2024/02/11 11:44:48;;;;;;;6.60;2.83;;;22.30;59.90;;;;;;5039128;28;20449;-85
2024/02/11 11:47:20;;;;;;;3.43;2.33;;;22.30;59.90;;;;;;5040325;28;20477;-83
2024/02/11 11:49:47;;;;;;;3.93;2.20;;;22.30;59.80;;;;;;5038485;28;20436;-83
2024/02/11 11:52:19;;;;;;;10.00;3.00;;;22.30;59.60;;;;;;5040191;28;20438;-82
2024/02/11 11:54:46;;;;;;;6.30;2.70;;;22.30;59.40;;;;;;5039287;28;20438;-83
2024/02/11 11:57:15;;;;;;;8.33;2.87;;;22.30;59.40;;;;;;5038569;28;20988;-83
2024/02/11 11:59:42;;;;;;;4.60;2.77;;;22.30;59.60;;;;;;5037828;28;20454;-84
2024/02/11 12:02:09;;;;;;;4.60;2.03;;;22.20;59.60;;;;;;5033891;28;20960;-83
2024/02/11 12:04:37;;;;;;;9.20;2.43;;;22.20;59.70;;;;;;5033774;28;20569;-83
2024/02/11 12:07:06;;;;;;;5.50;3.27;;;22.30;59.90;;;;;;5034949;28;20438;-83
2024/02/11 12:09:33;;;;;;;7.73;2.47;;;22.20;59.90;;;;;;5034107;28;20435;-83
2024/02/11 12:12:00;;;;;;;6.97;2.83;;;22.20;59.90;;;;;;5047547;28;20433;-83
2024/02/11 12:14:31;;;;;;;5.37;2.23;;;22.20;60.00;;;;;;5056323;28;20430;-83
2024/02/11 12:19:38;;;;;;;4.23;2.23;;;22.20;60.10;;;;;;5038964;28;20477;-83
2024/02/11 12:22:06;;;;;;;7.90;2.80;;;22.20;59.50;;;;;;5033842;28;20438;-84
2024/02/11 12:24:36;;;;;;;18.90;4.17;;;22.10;59.00;;;;;;5034346;28;20442;-84
2024/02/11 12:27:04;;;;;;;6.60;3.73;;;22.10;58.40;;;;;;5034690;28;20785;-85
2024/02/11 12:29:32;;;;;;;9.23;2.50;;;22.00;58.90;;;;;;5034859;28;20478;-85
2024/02/11 12:32:00;;;;;;;8.30;2.73;;;22.00;59.10;;;;;;5034460;28;20520;-86
2024/02/11 12:34:29;;;;;;;10.37;2.50;;;22.00;59.60;;;;;;5034465;28;20836;-84
2024/02/11 12:37:00;;;;;;;5.13;2.77;;;22.00;59.80;;;;;;5034865;28;20474;-85
2024/02/11 12:39:28;;;;;;;5.73;3.07;;;22.00;60.00;;;;;;5032373;28;20446;-84
2024/02/11 12:41:55;;;;;;;5.17;2.70;;;22.00;60.00;;;;;;5031955;28;20450;-85
2024/02/11 12:44:22;;;;;;;6.33;2.97;;;22.00;59.60;;;;;;5033862;28;20457;-86
2024/02/11 12:46:51;;;;;;;7.00;2.87;;;22.00;59.30;;;;;;5031215;28;20880;-83
2024/02/11 12:49:18;;;;;;;4.43;2.33;;;22.00;59.80;;;;;;5033985;28;20449;-85
2024/02/11 12:51:45;;;;;;;8.83;3.17;;;22.10;60.10;;;;;;5033503;28;20446;-84
2024/02/11 12:54:12;;;;;;;5.37;2.73;;;22.00;60.00;;;;;;5033715;28;20435;-82